Time;durP1;ratioP1;P1;durP2;ratioP2;P2;SDS_P1;SDS_P2;PMS_P1;PMS_P2;Temp;Humidity;BMP_temperature;BMP_pressure;BME280_temperature;BME280_humidity;BME280_pressure;Samples;Min_cycle;Max_cycle;Signal;HPM_P1;HPM_P2
2023/04/07 07:06:56;;;;;;;15.57;7.25;;;;;;;7.84;80.42;96366.09;2084664;28;21118;-64
2023/04/07 07:20:12;;;;;;;22.05;11.63;;;;;;;7.60;80.28;96378.25;2115976;27;20554;-60
2023/04/07 07:22:02;;;;;;;13.82;9.23;;;;;;;8.04;78.61;96365.31;2078375;28;20949;-61
2023/04/07 07:23:04;;;;;;;14.00;8.35;;;;;;;8.40;77.83;96375.16;2068424;28;20198;-63
2023/04/07 07:24:06;;;;;;;16.67;9.23;;;;;;;8.89;76.35;96376.69;2069396;28;20696;-61
2023/04/07 07:25:07;;;;;;;13.45;7.70;;;;;;;9.06;74.23;96373.38;2067164;28;20345;-61
2023/04/07 07:26:09;;;;;;;20.20;8.55;;;;;;;9.18;74.20;96378.06;2070456;28;20205;-61
2023/04/07 07:27:11;;;;;;;11.40;7.70;;;;;;;9.59;73.69;96377.97;2069061;28;20233;-61
2023/04/07 07:28:14;;;;;;;21.58;8.50;;;;;;;10.15;71.90;96378.06;2066923;28;20237;-61
2023/04/07 07:29:25;;;;;;;13.52;7.80;;;;;;;10.68;69.54;96375.56;2077396;28;20587;-61
2023/04/07 07:30:27;;;;;;;15.23;6.90;;;;;;;11.15;67.77;96371.47;2069672;28;20232;-62
2023/04/07 07:31:30;;;;;;;10.60;6.65;;;;;;;10.98;65.91;96360.13;2069635;28;20209;-61
2023/04/07 07:32:32;;;;;;;11.07;6.32;;;;;;;11.35;64.54;96375.69;2066728;28;20226;-61
2023/04/07 07:33:33;;;;;;;8.45;4.95;;;;;;;12.16;63.04;96370.50;2066065;28;20194;-61
2023/04/07 07:34:35;;;;;;;8.75;4.50;;;;;;;12.50;60.85;96367.78;2066745;28;20638;-61
2023/04/07 07:35:36;;;;;;;12.38;6.10;;;;;;;12.14;60.55;96371.50;2068980;28;20193;-62
2023/04/07 07:36:38;;;;;;;9.63;5.90;;;;;;;11.75;63.07;96374.41;2067055;28;20588;-62
2023/04/07 07:37:39;;;;;;;11.00;5.25;;;;;;;11.78;63.58;96373.41;2071599;28;20198;-62
2023/04/07 07:38:41;;;;;;;8.68;4.35;;;;;;;12.05;63.47;96365.03;2070157;28;20632;-62
2023/04/07 07:39:42;;;;;;;7.80;4.82;;;;;;;12.31;63.12;96358.31;2072522;28;20253;-61
2023/04/07 07:40:46;;;;;;;34.00;20.80;;;;;;;12.26;62.35;96376.06;2070264;28;20312;-59
2023/04/07 07:41:50;;;;;;;43.80;26.02;;;;;;;12.92;61.34;96371.47;2065130;28;20240;-61
2023/04/07 07:42:55;;;;;;;9.25;6.30;;;;;;;12.21;63.01;96370.25;2070857;28;20236;-61
2023/04/07 07:43:57;;;;;;;10.70;6.28;;;;;;;12.23;63.04;96371.84;2068256;28;20198;-61
2023/04/07 07:44:59;;;;;;;11.27;6.45;;;;;;;12.13;64.16;96375.91;2068770;28;20210;-61
2023/04/07 07:46:00;;;;;;;13.50;5.03;;;;;;;12.65;62.68;96377.38;2069159;28;20726;-63
2023/04/07 07:47:02;;;;;;;8.48;4.40;;;;;;;12.64;61.81;96378.28;2067570;28;20623;-63
2023/04/07 07:48:03;;;;;;;10.55;4.75;;;;;;;12.72;60.27;96373.47;2067552;28;20205;-63
2023/04/07 07:49:05;;;;;;;9.05;4.20;;;;;;;12.83;60.15;96377.25;2067144;28;20218;-63
2023/04/07 07:50:06;;;;;;;6.35;4.43;;;;;;;13.32;61.13;96379.59;2065905;28;20533;-64
2023/04/07 07:51:08;;;;;;;6.72;4.35;;;;;;;13.87;59.76;96372.78;2066087;28;20565;-64
2023/04/07 07:52:10;;;;;;;4.80;3.35;;;;;;;13.98;58.68;96379.13;2071974;28;20245;-64
2023/04/07 07:53:11;;;;;;;6.97;3.72;;;;;;;13.87;59.12;96375.41;2071153;28;20714;-64
2023/04/07 07:54:13;;;;;;;5.80;3.67;;;;;;;14.27;58.55;96373.84;2069664;28;20198;-64
2023/04/07 07:55:14;;;;;;;5.63;3.67;;;;;;;14.28;58.19;96370.28;2068966;28;20209;-64
2023/04/07 07:56:15;;;;;;;8.27;3.80;;;;;;;13.45;59.32;96371.03;2069516;28;20205;-64
2023/04/07 07:57:17;;;;;;;6.15;3.58;;;;;;;14.23;58.62;96367.94;2069064;28;20228;-64
2023/04/07 07:58:18;;;;;;;5.93;3.65;;;;;;;-145.49;100.00;55703.94;2066025;28;20202;-64
2023/04/07 07:59:20;;;;;;;6.60;4.10;;;;;;;-145.49;100.00;55703.94;2066564;28;20228;-64
2023/04/07 08:00:22;;;;;;;6.80;3.20;;;;;;;-145.49;100.00;55703.94;2068108;28;20286;-64
2023/04/07 08:01:24;;;;;;;8.55;3.60;;;;;;;-145.49;100.00;55703.94;2067671;28;20193;-64
2023/04/07 08:02:30;;;;;;;4.95;3.58;;;;;;;-145.49;100.00;55703.94;2067527;28;20267;-64
2023/04/07 08:03:31;;;;;;;6.13;3.90;;;;;;;-145.49;100.00;55703.94;2069538;28;20205;-64
2023/04/07 08:04:35;;;;;;;6.20;3.60;;;;;;;-145.49;100.00;55703.94;2071339;28;20714;-64
2023/04/07 08:05:36;;;;;;;5.95;3.65;;;;;;;14.23;58.62;96367.94;2070317;28;20297;-64
2023/04/07 08:06:38;;;;;;;5.57;4.10;;;;;;;14.39;55.09;96374.84;2069679;28;20750;-64
2023/04/07 08:07:39;;;;;;;7.15;3.80;;;;;;;14.41;56.49;96371.19;2069953;28;20210;-64
2023/04/07 08:08:41;;;;;;;5.75;3.25;;;;;;;14.07;57.16;96368.06;2070221;28;20189;-64
2023/04/07 08:09:42;;;;;;;5.85;3.20;;;;;;;14.01;56.44;96371.91;2069174;28;20221;-63
2023/04/07 08:10:44;;;;;;;6.55;2.97;;;;;;;14.07;54.31;96354.09;2066922;28;20209;-64
2023/04/07 08:11:50;;;;;;;14.10;3.33;;;;;;;14.31;54.66;96372.69;2067703;28;20204;-64
2023/04/07 08:12:51;;;;;;;5.00;2.90;;;;;;;15.02;54.21;96368.97;2070491;28;20209;-64
2023/04/07 08:13:53;;;;;;;5.75;3.05;;;;;;;15.17;56.34;96366.22;2071272;28;20201;-64
2023/04/07 08:14:54;;;;;;;8.20;3.10;;;;;;;15.09;54.25;96363.28;2067961;28;20693;-64
2023/04/07 08:15:56;;;;;;;7.95;3.13;;;;;;;15.07;55.04;96367.81;2069093;28;20594;-63
2023/04/07 08:16:58;;;;;;;4.70;2.67;;;;;;;15.28;54.29;96366.34;2067106;28;20234;-64
2023/04/07 08:17:59;;;;;;;6.63;2.70;;;;;;;15.02;53.97;96361.06;2068652;28;20241;-64
2023/04/07 08:19:01;;;;;;;5.50;2.92;;;;;;;14.84;54.20;96364.91;2071125;28;20262;-64
2023/04/07 08:20:03;;;;;;;9.05;3.08;;;;;;;14.21;54.92;96375.09;2071044;28;20664;-64
2023/04/07 08:21:05;;;;;;;5.55;3.20;;;;;;;14.03;54.50;96371.84;2072043;28;20256;-63
2023/04/07 08:22:07;;;;;;;9.07;3.13;;;;;;;13.82;55.95;96377.47;2070827;28;20229;-63
2023/04/07 08:23:09;;;;;;;10.00;2.80;;;;;;;14.01;57.58;96381.59;2070759;28;20734;-64
2023/04/07 08:24:11;;;;;;;12.05;2.88;;;;;;;14.09;57.28;96376.69;2069928;28;20198;-64
2023/04/07 08:25:23;;;;;;;6.72;2.70;;;;;;;14.52;54.97;96378.34;2070229;28;20238;-63
2023/04/07 08:26:24;;;;;;;5.07;2.75;;;;;;;13.93;55.86;96381.22;2064835;28;20694;-61
2023/04/07 08:27:26;;;;;;;9.18;3.20;;;;;;;13.84;56.13;96385.25;2075404;28;20221;-61
2023/04/07 08:28:28;;;;;;;7.30;3.00;;;;;;;14.11;57.26;96387.94;2071126;28;20244;-63
2023/04/07 08:29:29;;;;;;;8.52;3.03;;;;;;;14.50;56.13;96386.34;2071474;28;20880;-64
2023/04/07 08:30:32;;;;;;;4.22;2.22;;;;;;;14.46;57.53;96384.00;2075980;28;20210;-65
2023/04/07 08:31:33;;;;;;;9.75;3.00;;;;;;;13.73;57.86;96385.09;2074257;28;20201;-64
2023/04/07 08:32:40;;;;;;;8.48;5.00;;;;;;;13.26;58.74;96385.22;2060766;28;20789;-66
2023/04/07 08:33:41;;;;;;;14.15;5.88;;;;;;;13.04;59.44;96385.66;2055261;28;20200;-67
2023/04/07 08:34:43;;;;;;;17.63;9.55;;;;;;;12.71;59.57;96381.44;2055218;28;20201;-66
2023/04/07 08:35:44;;;;;;;9.95;4.60;;;;;;;12.80;60.55;96388.75;2052565;28;20504;-67
2023/04/07 08:36:47;;;;;;;9.02;3.65;;;;;;;12.90;60.33;96387.28;2055626;28;20657;-67
2023/04/07 08:37:49;;;;;;;10.50;3.10;;;;;;;12.87;60.38;96386.63;2055435;28;20206;-66
2023/04/07 08:38:50;;;;;;;15.55;2.78;;;;;;;12.28;60.39;96386.44;2052087;28;20196;-65
2023/04/07 08:39:52;;;;;;;8.00;2.97;;;;;;;12.18;60.92;96392.19;2063664;28;20298;-65
2023/04/07 08:40:59;;;;;;;7.07;2.78;;;;;;;12.50;61.88;96391.34;2062167;28;20372;-66
2023/04/07 08:42:01;;;;;;;7.68;2.97;;;;;;;11.96;61.19;96375.97;2061965;28;20586;-65
2023/04/07 08:43:08;;;;;;;8.20;3.17;;;;;;;11.67;62.56;96386.22;2061854;28;20210;-65
2023/04/07 08:44:10;;;;;;;8.85;3.20;;;;;;;11.77;63.44;96383.03;2061336;28;20558;-66
2023/04/07 08:45:12;;;;;;;5.30;2.50;;;;;;;11.83;63.89;96384.47;2062999;28;20197;-66
2023/04/07 08:46:14;;;;;;;4.50;2.63;;;;;;;11.98;64.05;96385.44;2064086;28;20202;-66
2023/04/07 08:47:16;;;;;;;7.43;3.20;;;;;;;12.36;63.39;96389.50;2061458;28;20275;-66
2023/04/07 08:48:22;;;;;;;5.18;2.40;;;;;;;12.35;62.53;96391.25;2067291;28;20195;-66
2023/04/07 08:49:28;;;;;;;8.05;2.60;;;;;;;12.32;62.10;96388.00;2063961;28;20553;-66
2023/04/07 08:50:31;;;;;;;8.95;2.90;;;;;;;12.56;62.63;96386.59;2062960;28;20329;-66
2023/04/07 08:51:33;;;;;;;5.85;2.60;;;;;;;12.70;61.62;96387.59;2061936;28;20260;-66
2023/04/07 08:52:55;;;;;;;4.78;2.17;;;;;;;12.64;61.68;96380.09;2059377;28;20222;-66
2023/04/07 08:54:01;;;;;;;7.32;2.42;;;;;;;12.90;60.74;96392.53;2063944;28;20787;-66
2023/04/07 08:55:05;;;;;;;7.43;2.50;;;;;;;13.26;59.66;96387.00;2064337;28;21108;-66
2023/04/07 08:56:10;;;;;;;2.95;1.85;;;;;;;13.36;60.53;96380.25;2066274;28;20198;-66
2023/04/07 08:57:13;;;;;;;5.93;2.50;;;;;;;13.65;59.68;96369.78;2065160;28;20229;-66
2023/04/07 08:58:15;;;;;;;7.68;2.95;;;;;;;13.39;58.79;96390.59;2059439;28;20202;-66
2023/04/07 08:59:17;;;;;;;9.82;3.10;;;;;;;13.42;59.39;96389.56;2059567;28;20233;-66
2023/04/07 09:00:19;;;;;;;7.30;2.75;;;;;;;13.31;59.42;96383.16;2061279;28;20222;-66
2023/04/07 09:01:21;;;;;;;16.25;2.58;;;;;;;13.29;59.79;96387.63;2061524;28;20206;-66
2023/04/07 09:02:24;;;;;;;5.50;2.70;;;;;;;13.14;59.03;96388.56;2059264;28;20251;-66
2023/04/07 09:03:25;;;;;;;7.72;2.33;;;;;;;13.50;58.88;96385.53;2061318;28;20813;-66
2023/04/07 09:04:28;;;;;;;8.10;2.83;;;;;;;13.72;57.23;96384.22;2059202;28;20590;-66
2023/04/07 09:05:29;;;;;;;7.85;2.80;;;;;;;13.58;56.66;96373.75;2059755;28;20213;-66
2023/04/07 09:06:35;;;;;;;9.38;3.00;;;;;;;13.81;58.16;96378.41;2060940;28;20913;-66
2023/04/07 09:07:39;;;;;;;8.27;2.50;;;;;;;13.82;57.70;96395.84;2063394;28;20574;-66
2023/04/07 09:08:42;;;;;;;6.20;2.45;;;;;;;14.33;56.64;96387.41;2061169;28;20253;-66
2023/04/07 09:09:44;;;;;;;13.30;3.50;;;;;;;14.20;56.72;96397.03;2064139;28;20289;-66
2023/04/07 09:10:45;;;;;;;6.95;3.20;;;;;;;14.32;57.03;96388.38;2065501;28;20199;-67
2023/04/07 09:11:47;;;;;;;5.88;2.30;;;;;;;14.49;57.05;96395.16;2064769;28;20206;-66
2023/04/07 09:12:49;;;;;;;9.48;3.95;;;;;;;15.16;56.01;96389.06;2064367;28;20210;-66
2023/04/07 09:13:50;;;;;;;5.07;1.98;;;;;;;15.75;55.04;96379.81;2066486;28;20680;-66
2023/04/07 09:14:53;;;;;;;5.95;2.30;;;;;;;15.25;54.78;96382.34;2065641;28;20776;-66
2023/04/07 09:15:55;;;;;;;6.25;2.63;;;;;;;14.61;54.11;96397.94;2060917;28;20791;-66
2023/04/07 09:16:56;;;;;;;6.85;2.30;;;;;;;14.12;56.67;96394.03;2060545;28;20351;-65
2023/04/07 09:17:58;;;;;;;14.23;2.20;;;;;;;13.61;56.57;96392.78;2060003;28;20249;-66
2023/04/07 09:18:59;;;;;;;5.40;2.20;;;;;;;13.62;56.48;96390.97;2062464;28;20198;-62
2023/04/07 09:20:02;;;;;;;8.77;3.75;;;;;;;13.30;56.82;96404.22;2061750;28;20198;-63
2023/04/07 09:21:04;;;;;;;10.43;6.32;;;;;;;13.27;57.09;96404.41;2061498;28;20233;-61
2023/04/07 09:22:07;;;;;;;16.88;8.15;;;;;;;13.98;56.84;96403.63;2061867;28;20264;-62
2023/04/07 09:23:28;;;;;;;11.77;7.15;;;;;;;13.94;55.98;96402.13;2064450;28;20237;-58
2023/04/07 09:24:32;;;;;;;8.15;2.20;;;;;;;14.53;54.63;96398.44;2065330;28;20230;-58
2023/04/07 09:25:34;;;;;;;6.85;2.45;;;;;;;14.17;53.78;96398.06;2063768;28;20225;-61
2023/04/07 09:26:35;;;;;;;7.57;2.30;;;;;;;14.03;54.64;96398.09;2063610;28;20202;-60
2023/04/07 09:27:37;;;;;;;8.20;2.40;;;;;;;13.49;54.70;96394.34;2062246;28;20207;-60
2023/04/07 09:28:43;;;;;;;4.95;1.90;;;;;;;13.45;55.87;96395.47;2064753;28;20222;-60
2023/04/07 09:29:46;;;;;;;4.88;1.70;;;;;;;13.03;55.29;96390.03;2061450;28;20289;-59
2023/04/07 09:30:54;;;;;;;5.78;1.90;;;;;;;13.41;55.50;96390.50;2060573;28;20202;-62
2023/04/07 09:31:56;;;;;;;6.60;2.38;;;;;;;14.01;54.44;96386.84;2058365;28;21151;-62
2023/04/07 09:32:59;;;;;;;8.98;1.85;;;;;;;14.30;53.83;96381.53;2061980;28;20191;-62
2023/04/07 09:34:04;;;;;;;7.97;1.80;;;;;;;14.81;53.59;96389.63;2061246;28;20198;-62
2023/04/07 09:35:06;;;;;;;4.80;1.80;;;;;;;15.10;52.91;96384.22;2062508;28;20880;-62
2023/04/07 09:36:07;;;;;;;5.00;1.92;;;;;;;15.56;51.79;96367.09;2062271;28;20206;-62
2023/04/07 09:37:20;;;;;;;9.15;2.10;;;;;;;15.54;50.17;96378.66;2063728;28;20218;-62
2023/04/07 09:38:32;;;;;;;6.03;1.98;;;;;;;15.06;50.65;96389.78;2064070;28;20784;-63
2023/04/07 09:39:51;;;;;;;5.70;1.75;;;;;;;15.60;51.22;96386.16;2061551;28;20203;-63
2023/04/07 09:41:04;;;;;;;4.60;1.48;;;;;;;14.44;53.56;96388.53;2063152;28;20198;-63
2023/04/07 09:42:06;;;;;;;7.80;1.40;;;;;;;14.47;52.72;96389.16;2061277;28;20316;-63
2023/04/07 09:43:17;;;;;;;12.20;1.90;;;;;;;14.09;51.24;96388.97;2059335;28;20226;-63
2023/04/07 09:44:20;;;;;;;5.53;1.52;;;;;;;14.13;53.17;96380.81;2060105;28;20195;-63
2023/04/07 09:45:30;;;;;;;8.38;1.65;;;;;;;14.25;53.40;96389.69;2060329;28;20213;-63
2023/04/07 09:46:57;;;;;;;5.97;1.90;;;;;;;13.83;52.94;96394.91;2062038;28;20645;-63
2023/04/07 09:47:58;;;;;;;8.38;1.98;;;;;;;13.96;53.07;96394.16;2064334;28;20664;-63
2023/04/07 09:49:04;;;;;;;13.63;1.88;;;;;;;13.68;52.65;96393.22;2062007;28;20297;-62
2023/04/07 09:50:06;;;;;;;10.07;2.35;;;;;;;13.53;53.52;96395.88;2059797;28;20207;-63
2023/04/07 09:51:10;;;;;;;8.18;2.20;;;;;;;13.42;53.42;96389.56;2062559;28;20199;-63
2023/04/07 09:52:12;;;;;;;17.48;2.85;;;;;;;13.07;53.36;96390.69;2063989;28;20913;-62
2023/04/07 09:53:18;;;;;;;5.45;2.22;;;;;;;13.21;53.80;96390.72;2061976;28;20241;-62
2023/04/07 09:54:40;;;;;;;3.97;1.55;;;;;;;13.74;53.42;96366.63;2063511;28;20244;-63
2023/04/07 09:55:42;;;;;;;6.63;1.30;;;;;;;14.26;52.57;96394.00;2060085;28;20222;-60
2023/04/07 09:56:44;;;;;;;56.55;29.63;;;;;;;14.75;49.87;96370.78;2060250;28;20626;-61
2023/04/07 09:57:49;;;;;;;7.75;2.53;;;;;;;14.79;51.00;96386.28;2059131;28;20214;-60
2023/04/07 09:58:50;;;;;;;7.47;2.65;;;;;;;14.76;50.23;96383.81;2060989;28;20245;-62
2023/04/07 09:59:54;;;;;;;6.82;3.30;;;;;;;14.60;49.14;96383.13;2061086;28;20234;-62
2023/04/07 10:00:56;;;;;;;11.38;3.72;;;;;;;15.01;49.19;96380.41;2063675;28;20245;-62
2023/04/07 10:01:59;;;;;;;4.10;1.20;;;;;;;15.20;49.30;96387.09;2061543;28;20222;-62
2023/04/07 10:03:02;;;;;;;8.88;2.45;;;;;;;15.17;50.56;96389.91;2062727;28;20248;-62
2023/04/07 10:04:11;;;;;;;12.27;2.28;;;;;;;15.15;52.36;96390.00;2060460;28;20205;-62
2023/04/07 10:05:13;;;;;;;4.05;1.48;;;;;;;14.64;53.75;96393.38;2064315;28;20197;-62
2023/04/07 10:06:15;;;;;;;5.53;1.65;;;;;;;14.58;55.18;96398.16;2062859;28;20206;-62
2023/04/07 10:07:17;;;;;;;6.10;1.90;;;;;;;14.67;54.36;96385.28;2063939;28;20230;-62
2023/04/07 10:08:19;;;;;;;5.78;1.75;;;;;;;14.26;55.39;96399.25;2065312;28;20198;-62
2023/04/07 10:09:27;;;;;;;4.20;1.85;;;;;;;13.55;55.11;96404.47;2061186;28;20203;-64
2023/04/07 10:10:30;;;;;;;3.97;1.60;;;;;;;13.29;56.45;96389.44;2062101;28;20226;-64
2023/04/07 10:11:32;;;;;;;8.40;2.22;;;;;;;13.39;56.65;96406.31;2063622;28;20195;-64
2023/04/07 10:12:35;;;;;;;3.90;1.65;;;;;;;13.38;56.66;96404.63;2062553;28;20226;-64
2023/04/07 10:13:39;;;;;;;8.10;1.65;;;;;;;13.12;56.44;96412.25;2063464;28;20245;-64
2023/04/07 10:14:45;;;;;;;4.45;1.60;;;;;;;12.93;58.06;96398.53;2064530;28;20717;-64
2023/04/07 10:15:48;;;;;;;8.48;1.77;;;;;;;13.11;57.90;96404.47;2062052;28;20227;-64
2023/04/07 10:16:50;;;;;;;5.90;2.00;;;;;;;12.88;57.83;96406.66;2061596;28;20335;-64
2023/04/07 10:17:53;;;;;;;7.80;2.35;;;;;;;12.64;58.86;96393.19;2061669;28;20302;-64
2023/04/07 10:18:55;;;;;;;5.13;1.88;;;;;;;12.61;58.76;96393.34;2059936;28;20225;-64
2023/04/07 10:19:58;;;;;;;7.18;2.22;;;;;;;12.19;60.08;96404.38;2060837;28;20195;-64
2023/04/07 10:21:02;;;;;;;7.68;2.20;;;;;;;12.09;60.58;96395.34;2057907;28;20198;-64
2023/04/07 10:22:05;;;;;;;6.90;1.90;;;;;;;12.07;60.22;96397.19;2057799;28;20223;-64
2023/04/07 10:23:20;;;;;;;4.35;1.50;;;;;;;12.00;60.21;96396.69;2058885;28;20560;-64
2023/04/07 10:24:38;;;;;;;6.53;1.92;;;;;;;12.00;60.62;96395.81;2061111;28;20731;-64
2023/04/07 10:25:40;;;;;;;3.33;1.45;;;;;;;12.21;60.76;96401.66;2061856;28;20205;-64
2023/04/07 10:26:42;;;;;;;3.92;1.80;;;;;;;12.11;60.46;96393.47;2061524;28;20601;-64
2023/04/07 10:27:49;;;;;;;3.47;1.50;;;;;;;11.46;61.61;96398.66;2061433;28;20206;-64
2023/04/07 10:28:57;;;;;;;3.53;1.88;;;;;;;11.74;62.11;96398.91;2063874;28;20206;-64
2023/04/07 10:30:00;;;;;;;9.20;2.25;;;;;;;12.09;62.94;96400.56;2063523;28;20201;-64
2023/04/07 10:31:02;;;;;;;4.82;1.38;;;;;;;12.18;61.33;96400.06;2061498;28;20213;-63
2023/04/07 10:32:04;;;;;;;6.32;2.28;;;;;;;12.07;60.85;96405.91;2061272;28;20232;-64
2023/04/07 10:33:05;;;;;;;6.80;1.90;;;;;;;11.92;62.56;96398.81;2062344;28;20194;-64
2023/04/07 10:34:07;;;;;;;8.10;2.10;;;;;;;12.14;61.30;96395.94;2062959;28;20231;-64
2023/04/07 10:35:08;;;;;;;5.07;1.58;;;;;;;12.22;61.19;96401.56;2059798;28;20238;-64
2023/04/07 10:36:11;;;;;;;5.38;1.60;;;;;;;12.23;60.29;96405.88;2058131;28;20242;-64
2023/04/07 10:37:13;;;;;;;4.32;1.63;;;;;;;12.31;60.84;96402.00;2059699;28;20222;-64
2023/04/07 10:38:17;;;;;;;7.47;1.88;;;;;;;12.46;59.89;96402.94;2060623;28;20209;-64
2023/04/07 10:39:19;;;;;;;5.63;1.65;;;;;;;12.13;61.44;96399.47;2061208;28;20812;-64
2023/04/07 10:40:21;;;;;;;8.13;1.60;;;;;;;12.11;60.96;96400.47;2063141;28;20206;-64
2023/04/07 10:41:36;;;;;;;6.88;2.40;;;;;;;12.14;61.26;96398.53;2060517;28;20203;-64
2023/04/07 10:42:40;;;;;;;2.65;1.40;;;;;;;12.23;60.43;96400.66;2059633;28;20232;-63
2023/04/07 10:43:43;;;;;;;4.63;1.75;;;;;;;12.31;59.80;96396.78;2060281;28;20210;-64
2023/04/07 10:44:47;;;;;;;6.50;1.85;;;;;;;12.05;61.19;96401.69;2061935;28;20203;-64
2023/04/07 10:45:50;;;;;;;5.82;1.60;;;;;;;12.31;61.07;96399.38;2061964;28;20202;-64
2023/04/07 10:46:52;;;;;;;6.55;1.65;;;;;;;12.37;60.17;96402.50;2059657;28;20605;-64
2023/04/07 10:48:22;;;;;;;10.23;2.00;;;;;;;12.30;59.56;96400.31;2059912;28;20233;-64
2023/04/07 10:49:24;;;;;;;6.82;1.83;;;;;;;12.23;60.07;96400.66;2059256;28;20198;-64
2023/04/07 10:50:27;;;;;;;4.53;1.70;;;;;;;12.30;59.41;96400.31;2058907;28;20233;-64
2023/04/07 10:51:28;;;;;;;7.95;1.77;;;;;;;12.16;59.59;96393.22;2061243;28;20210;-63
2023/04/07 10:52:30;;;;;;;6.18;1.60;;;;;;;12.27;59.28;96397.88;2060192;28;20234;-64
2023/04/07 10:53:32;;;;;;;4.80;1.77;;;;;;;12.33;58.36;96400.13;2060935;28;20201;-64
2023/04/07 10:54:34;;;;;;;5.22;1.77;;;;;;;12.51;59.06;96404.34;2061377;28;20198;-63
2023/04/07 10:55:40;;;;;;;6.25;1.60;;;;;;;12.48;58.76;96404.53;2061218;28;20233;-63
2023/04/07 10:57:01;;;;;;;6.00;1.40;;;;;;;12.30;58.32;96398.53;2060215;28;20293;-63
2023/04/07 10:58:21;;;;;;;6.03;1.83;;;;;;;12.13;58.84;96402.09;2064574;28;20198;-64
2023/04/07 10:59:26;;;;;;;4.63;1.20;;;;;;;11.92;58.38;96404.06;2062039;28;20467;-64
2023/04/07 11:00:28;;;;;;;6.45;1.40;;;;;;;11.87;57.52;96396.47;2070516;28;20205;-64
2023/04/07 11:01:29;;;;;;;5.25;1.65;;;;;;;12.01;58.38;96390.53;2074652;28;20205;-64
2023/04/07 11:02:31;;;;;;;6.20;1.88;;;;;;;12.35;58.22;96395.66;2062795;28;20284;-64
2023/04/07 11:03:35;;;;;;;5.00;1.35;;;;;;;12.25;57.43;96401.41;2063685;28;20267;-63
2023/04/07 11:04:39;;;;;;;3.58;1.65;;;;;;;11.97;57.64;96402.06;2062595;28;20201;-63
2023/04/07 11:05:41;;;;;;;6.90;1.75;;;;;;;12.08;58.16;96396.25;2062685;28;20303;-63
2023/04/07 11:06:47;;;;;;;3.45;2.05;;;;;;;12.17;58.04;96403.59;2059749;28;20191;-64
2023/04/07 11:07:51;;;;;;;6.65;1.80;;;;;;;12.05;57.45;96396.44;2060720;28;20203;-64
2023/04/07 11:08:53;;;;;;;5.63;1.50;;;;;;;12.02;58.06;96402.66;2061608;28;20197;-64
2023/04/07 11:10:15;;;;;;;6.65;1.30;;;;;;;12.03;57.53;96398.28;2060521;28;20190;-63
2023/04/07 11:11:39;;;;;;;3.95;1.30;;;;;;;12.14;57.72;96395.94;2063957;28;20241;-63
2023/04/07 11:12:42;;;;;;;6.05;1.58;;;;;;;12.18;57.04;96386.13;2062649;28;20720;-63
2023/04/07 11:13:47;;;;;;;5.32;1.60;;;;;;;12.33;56.84;96392.28;2053156;28;20198;-64
2023/04/07 11:14:50;;;;;;;3.45;1.30;;;;;;;12.13;56.34;96393.41;2052924;28;20210;-64
2023/04/07 11:15:52;;;;;;;6.18;1.50;;;;;;;12.00;56.82;96396.69;2061757;28;20300;-64
2023/04/07 11:16:53;;;;;;;6.25;1.55;;;;;;;11.82;56.70;96398.50;2059684;28;20212;-63
2023/04/07 11:18:13;;;;;;;4.32;2.28;;;;;;;12.12;57.69;96397.78;2059777;28;20198;-63
2023/04/07 11:19:15;;;;;;;6.13;1.75;;;;;;;12.23;58.80;96398.03;2057956;28;20202;-64
2023/04/07 11:20:17;;;;;;;6.90;2.33;;;;;;;12.38;59.12;96398.97;2054774;28;20207;-63
2023/04/07 11:21:18;;;;;;;4.57;2.10;;;;;;;12.48;59.24;96396.69;2064281;28;23239;-61
2023/04/07 11:22:20;;;;;;;8.00;2.60;;;;;;;12.39;58.56;96399.78;2062472;28;20296;-62
2023/04/07 11:23:26;;;;;;;5.80;1.70;;;;;;;12.42;58.60;96407.50;2062055;28;20205;-62
2023/04/07 11:24:36;;;;;;;10.10;2.20;;;;;;;12.23;59.17;96398.03;2062359;28;20817;-61
2023/04/07 11:25:40;;;;;;;10.05;1.80;;;;;;;12.35;58.96;96396.50;2064351;28;20202;-62
2023/04/07 11:26:42;;;;;;;5.60;1.75;;;;;;;12.57;58.95;96393.53;2063369;28;20209;-61
2023/04/07 11:27:43;;;;;;;4.72;1.60;;;;;;;12.49;59.03;96393.09;2060151;28;20352;-62
2023/04/07 11:28:46;;;;;;;4.15;1.80;;;;;;;12.54;59.33;96398.09;2063472;28;20658;-62
2023/04/07 11:29:49;;;;;;;3.50;1.83;;;;;;;12.39;60.07;96405.88;2062415;28;20202;-62
2023/04/07 11:30:52;;;;;;;4.47;2.33;;;;;;;12.58;60.42;96400.47;2061534;28;20681;-62
2023/04/07 11:31:57;;;;;;;3.55;2.05;;;;;;;12.33;61.12;96398.38;2058939;28;20671;-62
2023/04/07 11:32:58;;;;;;;8.00;1.90;;;;;;;12.47;60.10;96396.75;2067971;28;20561;-62
2023/04/07 11:34:03;;;;;;;8.30;2.15;;;;;;;12.25;59.79;96400.56;2066188;28;20186;-62
2023/04/07 11:35:06;;;;;;;4.72;2.10;;;;;;;12.09;60.77;96403.19;2063435;28;20789;-62
2023/04/07 11:36:08;;;;;;;10.75;2.85;;;;;;;12.07;61.28;96399.81;2062564;28;20209;-62
2023/04/07 11:37:24;;;;;;;9.23;3.13;;;;;;;11.87;61.62;96404.31;2058641;28;20753;-61
2023/04/07 11:38:27;;;;;;;5.80;2.78;;;;;;;12.00;61.53;96404.53;2062397;28;20198;-62
2023/04/07 11:39:32;;;;;;;3.85;2.00;;;;;;;12.03;60.62;96399.13;2062987;28;20197;-65
2023/04/07 11:40:36;;;;;;;5.70;2.47;;;;;;;11.83;60.89;96405.38;2062322;28;20205;-63
2023/04/07 11:41:46;;;;;;;6.13;2.33;;;;;;;11.82;60.75;96408.09;2061815;28;20194;-63
2023/04/07 11:42:47;;;;;;;5.43;1.98;;;;;;;11.92;60.33;96409.28;2062710;28;20230;-63
2023/04/07 11:44:03;;;;;;;6.18;3.08;;;;;;;11.98;60.28;96398.53;2062510;28;20692;-63
2023/04/07 11:45:14;;;;;;;7.72;2.42;;;;;;;11.88;60.21;96402.53;2061764;28;20236;-63
2023/04/07 11:46:17;;;;;;;4.50;1.85;;;;;;;11.89;60.31;96407.69;2061403;28;20212;-63
2023/04/07 11:47:18;;;;;;;5.20;1.90;;;;;;;11.42;60.14;96406.66;2063068;28;20730;-63
2023/04/07 11:48:31;;;;;;;8.77;2.03;;;;;;;11.41;60.72;96402.38;2064649;28;20656;-63
2023/04/07 11:49:33;;;;;;;7.65;2.25;;;;;;;11.58;58.97;96413.72;2061058;28;20607;-63
2023/04/07 11:50:41;;;;;;;5.82;2.40;;;;;;;11.58;59.14;96403.25;2063505;28;20230;-63
2023/04/07 11:51:44;;;;;;;9.18;2.10;;;;;;;11.63;59.35;96408.22;2062254;28;20201;-63
2023/04/07 11:52:48;;;;;;;6.32;1.85;;;;;;;11.55;58.51;96409.50;2058593;28;20688;-63
2023/04/07 11:53:56;;;;;;;29.30;13.15;;;;;;;11.71;58.17;96416.53;2059991;28;20203;-62
2023/04/07 11:54:59;;;;;;;19.20;7.15;;;;;;;11.70;58.22;96405.19;2075971;28;20234;-64
2023/04/07 11:56:01;;;;;;;16.10;7.32;;;;;;;11.80;58.99;96412.59;2069707;28;20294;-64
2023/04/07 11:57:02;;;;;;;13.23;5.55;;;;;;;11.67;58.24;96408.00;2060250;28;20232;-64
2023/04/07 11:58:06;;;;;;;9.18;4.00;;;;;;;11.82;57.22;96416.81;2061016;28;20740;-64
2023/04/07 11:59:07;;;;;;;11.93;3.05;;;;;;;11.92;57.67;96417.13;2063995;28;20212;-64
2023/04/07 12:00:11;;;;;;;5.93;2.00;;;;;;;11.90;57.33;96414.59;2064435;28;20219;-64
2023/04/07 12:01:12;;;;;;;5.32;1.90;;;;;;;11.71;57.59;96409.50;2059919;28;20678;-64
2023/04/07 12:11:24;;;;;;;7.40;2.63;;;;;;;10.98;62.31;96414.16;2084055;28;20564;-63
2023/04/07 12:12:28;;;;;;;4.72;2.28;;;;;;;10.96;62.42;96416.84;2073780;28;20229;-63
2023/04/07 12:13:30;;;;;;;8.82;3.03;;;;;;;11.22;63.19;96430.34;2071133;28;20707;-65
2023/04/07 12:14:32;;;;;;;6.68;2.45;;;;;;;11.02;64.58;96423.50;2071001;28;20664;-65
2023/04/07 12:15:35;;;;;;;5.00;2.70;;;;;;;11.03;64.77;96418.22;2073067;28;20197;-65
2023/04/07 12:16:38;;;;;;;5.65;2.25;;;;;;;11.22;64.78;96430.34;2071179;28;20255;-65
2023/04/07 12:17:45;;;;;;;6.60;2.65;;;;;;;11.24;64.86;96425.91;2072276;28;20202;-66
2023/04/07 12:18:48;;;;;;;6.25;3.00;;;;;;;11.20;64.47;96426.97;2072238;28;20202;-65
2023/04/07 13:50:30;;;;;;;12.88;5.53;;;;;;;7.55;85.80;96458.97;2084033;27;20561;-65
2023/04/07 13:51:32;;;;;;;7.20;4.70;;;;;;;7.88;85.41;96458.66;2078683;28;20201;-65
2023/04/07 13:52:34;;;;;;;8.32;4.35;;;;;;;7.91;84.95;96465.50;2070446;28;20217;-67
2023/04/07 13:53:36;;;;;;;9.23;4.40;;;;;;;7.98;84.15;96460.00;2072782;28;20197;-66
2023/04/07 13:54:37;;;;;;;11.52;4.97;;;;;;;8.31;83.01;96459.63;2074662;28;20198;-68
2023/04/07 13:55:38;;;;;;;13.80;5.13;;;;;;;7.99;83.91;96456.50;2070202;28;20198;-67
2023/04/07 13:56:40;;;;;;;9.25;4.30;;;;;;;8.31;83.79;96464.00;2071047;28;20567;-67
2023/04/07 13:57:41;;;;;;;9.00;4.95;;;;;;;8.38;83.14;96462.00;2064631;28;20198;-67
2023/04/07 13:58:43;;;;;;;8.75;4.40;;;;;;;8.01;83.64;96466.84;2063428;28;20200;-67
2023/04/07 13:59:45;;;;;;;7.75;5.00;;;;;;;8.29;83.23;96464.06;2067011;28;20256;-67